createdAt,value
2023-02-20T00:01:05.367Z,100034.19
2023-02-20T00:03:33.144Z,100022.47
2023-02-20T00:06:00.540Z,100033.38
2023-02-20T00:08:28.061Z,100031.78
2023-02-20T00:10:55.381Z,100035.25
2023-02-20T00:13:22.931Z,100006.13
2023-02-20T00:15:50.266Z,100018.81
2023-02-20T00:18:17.976Z,99999.16
2023-02-20T00:20:45.214Z,100006.81
2023-02-20T00:23:13.135Z,100012.91
2023-02-20T00:25:40.442Z,99990.69
2023-02-20T00:28:08.039Z,100008.53
2023-02-20T00:30:35.521Z,100008.78
2023-02-20T00:33:03.077Z,99997.41
2023-02-20T00:35:30.371Z,100005.94
2023-02-20T00:37:57.944Z,99997.47
2023-02-20T00:40:26.361Z,100002.09
2023-02-20T00:42:53.957Z,100007.44
2023-02-20T00:45:21.517Z,100017.97
2023-02-20T00:47:49.147Z,100015.09
2023-02-20T00:50:17.963Z,99992.47
2023-02-20T00:52:46.045Z,99990.84
2023-02-20T00:55:13.778Z,99978.06
2023-02-20T00:57:41.711Z,99989.25
2023-02-20T01:00:13.122Z,99989.63
2023-02-20T01:02:40.786Z,100009.28
2023-02-20T01:05:08.665Z,100014.00
2023-02-20T01:07:36.560Z,100019.03
2023-02-20T01:10:04.107Z,100019.72
2023-02-20T01:12:33.249Z,100012.97
2023-02-20T01:15:00.477Z,100015.44
2023-02-20T01:17:29.483Z,100003.09
2023-02-20T01:19:56.802Z,100001.03
2023-02-20T01:22:24.490Z,99998.38
2023-02-20T01:24:51.994Z,99987.97
2023-02-20T01:27:19.511Z,99990.75
2023-02-20T01:29:46.832Z,99993.56
2023-02-20T01:32:15.154Z,99991.06
2023-02-20T01:34:42.419Z,99986.66
2023-02-20T01:37:14.408Z,100000.81
2023-02-20T01:39:42.951Z,99975.88
2023-02-20T01:42:17.821Z,99984.94
2023-02-20T01:44:45.283Z,99977.31
2023-02-20T01:47:19.251Z,99963.72
2023-02-20T01:49:56.903Z,99968.72
2023-02-20T01:52:29.011Z,99965.56
2023-02-20T01:55:01.745Z,99952.25
2023-02-20T01:57:33.686Z,99955.78
2023-02-20T02:00:10.068Z,99946.19
2023-02-20T02:02:50.074Z,99929.69
2023-02-20T02:05:18.745Z,99931.00
2023-02-20T02:07:46.633Z,99930.97
2023-02-20T02:10:18.650Z,99932.25
2023-02-20T02:12:49.777Z,99925.28
2023-02-20T02:15:19.729Z,99909.00
2023-02-20T02:18:16.431Z,99918.69
2023-02-20T02:20:52.904Z,99925.47
2023-02-20T02:23:57.439Z,99922.94
2023-02-20T02:26:43.576Z,99929.59
2023-02-20T02:29:20.200Z,99930.50
2023-02-20T02:32:25.110Z,99927.75
2023-02-20T02:35:26.997Z,99927.84
2023-02-20T02:38:27.506Z,99915.41
2023-02-20T02:41:11.787Z,99916.94
2023-02-20T02:43:55.689Z,99918.28
2023-02-20T02:46:37.719Z,99916.84
2023-02-20T02:49:14.073Z,99913.47
2023-02-20T02:51:45.824Z,99921.59
2023-02-20T02:54:19.942Z,99906.31
2023-02-20T02:56:48.733Z,99911.25
2023-02-20T02:59:32.663Z,99902.75
2023-02-20T03:02:06.241Z,99900.97
2023-02-20T03:04:35.008Z,99896.97
2023-02-20T03:07:11.132Z,99894.44
2023-02-20T03:09:46.976Z,99885.22
2023-02-20T03:12:15.767Z,99893.03
2023-02-20T03:15:05.138Z,99883.28
2023-02-20T03:17:39.814Z,99866.13
2023-02-20T03:20:12.222Z,99858.16
2023-02-20T03:22:48.071Z,99858.94
2023-02-20T03:25:38.420Z,99861.34
2023-02-20T03:28:29.990Z,99857.47
2023-02-20T03:31:10.928Z,99847.19
2023-02-20T03:34:04.503Z,99849.19
2023-02-20T03:37:15.705Z,99855.00
2023-02-20T03:40:06.445Z,99861.56
2023-02-20T03:42:56.319Z,99851.84
2023-02-20T03:45:32.631Z,99861.53
2023-02-20T03:48:06.474Z,99852.97
2023-02-20T03:50:53.401Z,99859.69
2023-02-20T03:53:24.995Z,99853.06
2023-02-20T03:55:55.029Z,99853.44
2023-02-20T03:58:25.773Z,99853.59
2023-02-20T04:00:58.347Z,99849.25
2023-02-20T04:03:30.835Z,99854.69
2023-02-20T04:06:00.034Z,99850.09
2023-02-20T04:08:41.510Z,99846.47
2023-02-20T04:11:25.101Z,99842.25
2023-02-20T04:13:54.677Z,99845.09
2023-02-20T04:16:24.525Z,99841.44
2023-02-20T04:18:52.605Z,99824.25
2023-02-20T04:21:28.282Z,99818.69
2023-02-20T04:24:05.913Z,99800.66
2023-02-20T04:26:34.704Z,99790.41
2023-02-20T04:29:02.301Z,99793.31
2023-02-20T04:31:30.512Z,99793.56
2023-02-20T04:33:57.826Z,99787.72
2023-02-20T04:36:26.790Z,99784.22
2023-02-20T04:38:57.056Z,99788.72
2023-02-20T04:41:29.408Z,99789.34
2023-02-20T04:44:16.624Z,99759.31
2023-02-20T04:46:46.358Z,99769.28
2023-02-20T04:49:14.886Z,99760.59
2023-02-20T04:51:47.301Z,99759.91
2023-02-20T04:54:15.205Z,99735.63
2023-02-20T04:56:43.089Z,99742.31
2023-02-20T04:59:11.184Z,99731.00
2023-02-20T05:01:39.434Z,99731.69
2023-02-20T05:04:06.734Z,99732.88
2023-02-20T05:06:34.252Z,99730.03
2023-02-20T05:09:01.558Z,99733.44
2023-02-20T05:11:29.169Z,99711.78
2023-02-20T05:13:56.376Z,99699.50
2023-02-20T05:16:23.957Z,99713.91
2023-02-20T05:18:51.188Z,99703.91
2023-02-20T05:21:37.324Z,99709.84
2023-02-20T05:24:07.458Z,99696.34
2023-02-20T05:26:37.123Z,99689.47
2023-02-20T05:29:04.644Z,99688.88
2023-02-20T05:31:32.330Z,99665.41
2023-02-20T05:33:59.626Z,99667.94
2023-02-20T05:36:27.188Z,99660.22
2023-02-20T05:38:54.403Z,99655.84
2023-02-20T05:41:22.044Z,99656.00
2023-02-20T05:43:49.436Z,99651.34
2023-02-20T05:46:17.629Z,99645.81
2023-02-20T05:48:50.450Z,99640.75
2023-02-20T05:51:26.243Z,99632.81
2023-02-20T05:53:53.526Z,99637.91
2023-02-20T05:56:21.546Z,99633.56
2023-02-20T05:58:49.182Z,99618.97
2023-02-20T06:01:28.430Z,99610.16
2023-02-20T06:03:55.945Z,99600.06
2023-02-20T06:06:24.633Z,99594.53
2023-02-20T06:08:51.892Z,99583.53
2023-02-20T06:11:19.419Z,99576.72
2023-02-20T06:13:46.729Z,99562.13
2023-02-20T06:16:28.746Z,99568.41
2023-02-20T06:18:57.152Z,99573.44
2023-02-20T06:21:24.968Z,99576.00
2023-02-20T06:23:53.889Z,99569.00
2023-02-20T06:26:22.711Z,99555.22
2023-02-20T06:28:50.878Z,99541.31
2023-02-20T06:31:24.926Z,99541.31
2023-02-20T06:33:52.900Z,99537.44
2023-02-20T06:36:26.743Z,99522.84
2023-02-20T06:38:57.393Z,99503.59
2023-02-20T06:41:26.441Z,99500.81
2023-02-20T06:43:53.825Z,99506.75
2023-02-20T06:46:22.959Z,99502.75
2023-02-20T06:48:56.450Z,99497.22
2023-02-20T06:51:28.196Z,99480.41
2023-02-20T06:53:55.744Z,99486.19
2023-02-20T06:56:26.576Z,99489.69
2023-02-20T06:58:54.964Z,99475.31
2023-02-20T07:01:27.016Z,99488.47
2023-02-20T07:03:55.511Z,99480.88
2023-02-20T07:06:24.605Z,99469.88
2023-02-20T07:08:52.262Z,99468.56
2023-02-20T07:11:22.213Z,99454.78
2023-02-20T07:13:49.828Z,99461.41
2023-02-20T07:16:17.583Z,99444.63
2023-02-20T07:18:44.918Z,99437.63
2023-02-20T07:21:12.577Z,99426.50
2023-02-20T07:23:40.001Z,99415.13
2023-02-20T07:26:07.768Z,99401.50
2023-02-20T07:28:36.437Z,99394.09
2023-02-20T07:31:04.283Z,99383.13
2023-02-20T07:33:31.548Z,99361.25
2023-02-20T07:35:59.179Z,99354.50
2023-02-20T07:38:26.434Z,99341.81
2023-02-20T07:40:54.143Z,99323.00
2023-02-20T07:43:21.414Z,99336.03
2023-02-20T07:45:51.550Z,99340.38
2023-02-20T07:48:18.824Z,99315.72
2023-02-20T07:50:46.578Z,99303.03
2023-02-20T07:53:15.829Z,99300.47
2023-02-20T07:55:43.408Z,99284.03
2023-02-20T07:58:10.756Z,99281.03
2023-02-20T08:00:38.774Z,99272.50
2023-02-20T08:03:06.008Z,99262.69
2023-02-20T08:05:48.180Z,99247.25
2023-02-20T08:08:17.125Z,99232.50
2023-02-20T08:10:44.765Z,99232.16
2023-02-20T08:13:12.129Z,99225.03
2023-02-20T08:15:39.713Z,99214.34
2023-02-20T08:18:18.612Z,99214.63
2023-02-20T08:20:52.159Z,99211.09
2023-02-20T08:23:22.119Z,99191.50
2023-02-20T08:25:49.775Z,99190.03
2023-02-20T08:28:17.038Z,99185.97
2023-02-20T08:30:44.707Z,99170.72
2023-02-20T08:33:12.290Z,99156.97
2023-02-20T08:35:39.907Z,99125.88
2023-02-20T08:38:22.044Z,99136.66
2023-02-20T08:40:49.661Z,99129.31
2023-02-20T08:43:16.904Z,99112.88
2023-02-20T08:45:44.504Z,99085.75
2023-02-20T08:48:11.836Z,99071.44
2023-02-20T08:50:39.423Z,99050.63
2023-02-20T08:53:06.751Z,99038.38
2023-02-20T08:55:34.499Z,99029.44
2023-02-20T08:58:01.795Z,98987.50
2023-02-20T09:00:29.446Z,98947.25
2023-02-20T09:02:56.820Z,98953.56
2023-02-20T09:05:24.684Z,98977.06
2023-02-20T09:07:53.194Z,98962.38
2023-02-20T09:10:21.353Z,98966.06
2023-02-20T09:12:48.947Z,98964.56
2023-02-20T09:15:19.871Z,98963.69
2023-02-20T09:17:51.468Z,98951.13
2023-02-20T09:20:21.126Z,98952.97
2023-02-20T09:22:51.824Z,98904.59
2023-02-20T09:25:19.574Z,98925.53
2023-02-20T09:27:46.949Z,98917.25
2023-02-20T09:30:21.120Z,98907.72
2023-02-20T09:32:50.415Z,98892.28
2023-02-20T09:35:27.134Z,98886.16
2023-02-20T09:37:55.081Z,98865.41
2023-02-20T09:40:28.477Z,98883.31
2023-02-20T09:43:15.271Z,98879.97
2023-02-20T09:45:57.568Z,98881.50
2023-02-20T09:48:27.492Z,98879.13
2023-02-20T09:50:58.538Z,98883.88
2023-02-20T09:53:28.746Z,98873.94
2023-02-20T09:55:58.532Z,98850.53
2023-02-20T09:58:25.744Z,98864.53
2023-02-20T10:00:53.562Z,98848.00
2023-02-20T10:03:37.553Z,98847.09
2023-02-20T10:06:15.936Z,98824.16
2023-02-20T10:08:43.568Z,98838.00
2023-02-20T10:11:17.972Z,98850.63
2023-02-20T10:13:57.747Z,98840.38
2023-02-20T10:16:57.297Z,98833.63
2023-02-20T10:19:43.765Z,98814.03
2023-02-20T10:22:25.380Z,98798.59
2023-02-20T10:25:01.895Z,98782.94
2023-02-20T10:28:09.147Z,98778.00
2023-02-20T10:30:36.326Z,98766.53
2023-02-20T10:33:26.406Z,98740.13
2023-02-20T10:36:02.527Z,98728.97
2023-02-20T10:39:03.401Z,98708.03
2023-02-20T10:41:46.028Z,98723.34
2023-02-20T10:44:27.021Z,98707.41
2023-02-20T10:47:00.300Z,98703.09
2023-02-20T10:49:42.039Z,98705.66
2023-02-20T10:52:29.501Z,98684.41
2023-02-20T10:55:09.758Z,98690.13
2023-02-20T10:57:41.828Z,98661.53
2023-02-20T11:00:33.187Z,98679.63
2023-02-20T11:03:10.617Z,98663.22
2023-02-20T11:05:46.633Z,98651.47
2023-02-20T11:08:14.366Z,98643.53
2023-02-20T11:10:41.932Z,98661.41
2023-02-20T11:13:17.794Z,98639.38
2023-02-20T11:15:46.568Z,98649.28
2023-02-20T11:18:33.745Z,98639.66
2023-02-20T11:21:01.601Z,98634.97
2023-02-20T11:23:41.498Z,98626.13
2023-02-20T11:26:25.383Z,98637.41
2023-02-20T11:29:21.009Z,98618.53
2023-02-20T11:31:49.991Z,98598.53
2023-02-20T11:34:21.593Z,98599.00
2023-02-20T11:36:53.608Z,98599.75
2023-02-20T11:39:29.961Z,98593.53
2023-02-20T11:42:18.593Z,98572.69
2023-02-20T11:44:53.691Z,98589.25
2023-02-20T11:47:30.749Z,98584.25
2023-02-20T11:50:19.850Z,98559.19
2023-02-20T11:53:08.015Z,98557.50
2023-02-20T11:55:35.606Z,98570.72
2023-02-20T11:58:03.748Z,98571.88
2023-02-20T12:00:45.905Z,98569.34
2023-02-20T12:03:23.675Z,98558.69
2023-02-20T12:05:51.941Z,98538.66
2023-02-20T12:08:37.860Z,98545.81
2023-02-20T12:11:11.958Z,98546.81
2023-02-20T12:13:42.748Z,98528.75
2023-02-20T12:16:47.798Z,98531.13
2023-02-20T12:19:52.986Z,98513.06
2023-02-20T12:22:35.358Z,98519.06
2023-02-20T12:25:27.550Z,98521.22
2023-02-20T12:28:03.767Z,98475.41
2023-02-20T12:30:49.485Z,98516.41
2023-02-20T12:33:39.744Z,98493.59
2023-02-20T12:36:24.235Z,98477.59
2023-02-20T12:39:28.980Z,98479.44
2023-02-20T12:42:32.417Z,98491.06
2023-02-20T12:44:59.770Z,98482.00
2023-02-20T12:47:33.110Z,98479.44
2023-02-20T12:50:29.695Z,98463.63
2023-02-20T12:53:21.802Z,98450.38
2023-02-20T12:55:52.341Z,98480.19
2023-02-20T12:58:38.641Z,98479.56
2023-02-20T13:01:11.210Z,98477.38
2023-02-20T13:03:57.753Z,98469.19
2023-02-20T13:06:32.684Z,98458.16
2023-02-20T13:09:22.120Z,98471.53
2023-02-20T13:11:56.559Z,98480.59
2023-02-20T13:14:42.870Z,98488.91
2023-02-20T13:17:32.089Z,98478.88
2023-02-20T13:20:15.681Z,98475.34
2023-02-20T13:22:44.241Z,98470.47
2023-02-20T13:25:33.621Z,98446.06
2023-02-20T13:28:07.042Z,98448.06
2023-02-20T13:30:34.673Z,98435.03
2023-02-20T13:33:29.817Z,98441.44
2023-02-20T13:35:58.071Z,98425.59
2023-02-20T13:38:27.810Z,98408.91
2023-02-20T13:40:55.288Z,98428.94
2023-02-20T13:43:22.539Z,98439.91
2023-02-20T13:46:17.938Z,98399.31
2023-02-20T13:48:50.081Z,98445.00
2023-02-20T13:51:31.116Z,98456.38
2023-02-20T13:54:11.824Z,98464.97
2023-02-20T13:56:39.406Z,98456.75
2023-02-20T13:59:14.144Z,98447.03
2023-02-20T14:02:04.943Z,98461.22
2023-02-20T14:04:33.026Z,98444.66
2023-02-20T14:07:00.754Z,98466.75
2023-02-20T14:09:32.859Z,98457.72
2023-02-20T14:12:12.549Z,98464.06
2023-02-20T14:14:43.820Z,98457.47
2023-02-20T14:17:19.554Z,98440.22
2023-02-20T14:19:49.890Z,98446.06
2023-02-20T14:22:20.906Z,98448.09
2023-02-20T14:25:23.229Z,98418.91
2023-02-20T14:27:51.253Z,98424.97
2023-02-20T14:30:22.704Z,98423.59
2023-02-20T14:32:59.040Z,98414.53
2023-02-20T14:35:39.330Z,98424.72
2023-02-20T14:38:37.283Z,98425.44
2023-02-20T14:41:13.365Z,98427.25
2023-02-20T14:43:41.205Z,98409.56
2023-02-20T14:46:21.931Z,98417.47
2023-02-20T14:48:49.770Z,98397.84
2023-02-20T14:51:23.331Z,98387.75
2023-02-20T14:54:10.986Z,98393.03
2023-02-20T14:56:38.218Z,98398.47
2023-02-20T14:59:29.485Z,98384.31
2023-02-20T15:02:00.952Z,98379.94
2023-02-20T15:04:29.146Z,98363.69
2023-02-20T15:07:05.840Z,98368.16
2023-02-20T15:09:55.753Z,98366.31
2023-02-20T15:12:34.764Z,98358.81
2023-02-20T15:15:05.379Z,98372.75
2023-02-20T15:17:34.833Z,98355.59
2023-02-20T15:20:34.255Z,98351.47
2023-02-20T15:23:31.971Z,98384.03
2023-02-20T15:26:28.647Z,98343.75
2023-02-20T15:29:23.022Z,98382.69
2023-02-20T15:32:07.011Z,98388.91
2023-02-20T15:34:37.304Z,98358.16
2023-02-20T15:37:30.149Z,98377.84
2023-02-20T15:40:28.896Z,98371.38
2023-02-20T15:42:57.716Z,98384.28
2023-02-20T15:45:27.066Z,98359.19
2023-02-20T15:47:55.601Z,98379.22
2023-02-20T15:50:23.429Z,98381.53
2023-02-20T15:52:51.470Z,98394.53
2023-02-20T15:55:22.283Z,98397.63
2023-02-20T15:57:51.123Z,98389.16
2023-02-20T16:00:27.151Z,98388.25
2023-02-20T16:02:55.178Z,98397.19
2023-02-20T16:05:23.096Z,98357.53
2023-02-20T16:07:50.621Z,98371.72
2023-02-20T16:10:20.843Z,98371.50
2023-02-20T16:12:53.557Z,98389.63
2023-02-20T16:15:22.025Z,98388.44
2023-02-20T16:17:50.014Z,98393.88
2023-02-20T16:20:26.081Z,98398.09
2023-02-20T16:22:53.848Z,98386.91
2023-02-20T16:25:22.889Z,98400.97
2023-02-20T16:27:56.393Z,98363.94
2023-02-20T16:30:38.385Z,98377.03
2023-02-20T16:33:22.075Z,98357.75
2023-02-20T16:35:50.570Z,98369.69
2023-02-20T16:38:19.115Z,98385.00
2023-02-20T16:40:46.901Z,98356.59
2023-02-20T16:43:15.211Z,98383.38
2023-02-20T16:45:45.397Z,98401.72
2023-02-20T16:48:17.615Z,98402.41
2023-02-20T16:50:48.539Z,98376.84
2023-02-20T16:53:16.510Z,98371.66
2023-02-20T16:55:44.517Z,98389.19
2023-02-20T16:58:12.148Z,98369.31
2023-02-20T17:00:54.914Z,98402.78
2023-02-20T17:03:24.359Z,98413.97
2023-02-20T17:05:58.597Z,98423.91
2023-02-20T17:08:27.561Z,98448.06
2023-02-20T17:10:55.538Z,98444.28
2023-02-20T17:13:23.095Z,98417.72
2023-02-20T17:15:50.420Z,98420.81
2023-02-20T17:18:18.075Z,98439.78
2023-02-20T17:20:45.296Z,98445.34
2023-02-20T17:23:12.856Z,98430.00
2023-02-20T17:25:40.059Z,98464.47
2023-02-20T17:28:07.794Z,98481.19
2023-02-20T17:30:35.314Z,98473.31
2023-02-20T17:33:02.896Z,98481.50
2023-02-20T17:35:30.172Z,98469.00
2023-02-20T17:37:57.746Z,98496.75
2023-02-20T17:40:25.283Z,98491.31
2023-02-20T17:42:52.858Z,98485.16
2023-02-20T17:45:20.085Z,98480.31
2023-02-20T17:47:47.628Z,98482.88
2023-02-20T17:50:17.985Z,98474.84
2023-02-20T17:52:45.976Z,98481.84
2023-02-20T17:55:21.541Z,98477.47
2023-02-20T17:57:49.399Z,98474.97
2023-02-20T18:00:19.457Z,98462.44
2023-02-20T18:02:47.283Z,98462.47
2023-02-20T18:05:15.137Z,98448.66
2023-02-20T18:07:42.705Z,98473.75
2023-02-20T18:10:10.092Z,98471.69
2023-02-20T18:12:37.741Z,98482.16
2023-02-20T18:15:05.378Z,98462.63
2023-02-20T18:17:33.952Z,98458.41
2023-02-20T18:20:01.236Z,98439.22
2023-02-20T18:22:29.485Z,98434.31
2023-02-20T18:24:56.760Z,98464.16
2023-02-20T18:27:25.335Z,98464.66
2023-02-20T18:29:52.625Z,98479.53
2023-02-20T18:32:20.197Z,98473.56
2023-02-20T18:34:47.686Z,98444.75
2023-02-20T18:37:15.196Z,98464.22
2023-02-20T18:39:43.968Z,98396.34
2023-02-20T18:42:11.633Z,98462.34
2023-02-20T18:44:38.906Z,98452.13
2023-02-20T18:47:06.556Z,98467.91
2023-02-20T18:49:35.167Z,98478.69
2023-02-20T18:52:04.910Z,98479.88
2023-02-20T18:54:34.948Z,98481.53
2023-02-20T18:57:04.051Z,98479.69
2023-02-20T18:59:31.562Z,98481.19
2023-02-20T19:01:59.621Z,98477.03
2023-02-20T19:04:26.976Z,98476.22
2023-02-20T19:06:54.706Z,98484.72
2023-02-20T19:09:24.421Z,98472.50
2023-02-20T19:11:56.446Z,98489.28
2023-02-20T19:14:25.767Z,98502.59
2023-02-20T19:16:56.382Z,98500.13
2023-02-20T19:19:25.830Z,98484.91
2023-02-20T19:21:54.357Z,98479.88
2023-02-20T19:24:22.791Z,98489.78
2023-02-20T19:26:51.238Z,98476.88
2023-02-20T19:29:19.408Z,98476.38
2023-02-20T19:31:47.212Z,98487.09
2023-02-20T19:34:15.198Z,98500.00
2023-02-20T19:36:43.794Z,98489.28
2023-02-20T19:39:13.062Z,98476.66
2023-02-20T19:41:41.713Z,98477.22
2023-02-20T19:44:15.444Z,98509.84
2023-02-20T19:46:43.838Z,98509.19
2023-02-20T19:49:12.970Z,98498.66
2023-02-20T19:51:48.859Z,98495.97
2023-02-20T19:54:18.152Z,98505.53
2023-02-20T19:56:51.075Z,98524.06
2023-02-20T19:59:19.016Z,98516.72
2023-02-20T20:01:48.801Z,98535.63
2023-02-20T20:04:16.379Z,98527.56
2023-02-20T20:06:44.341Z,98518.41
2023-02-20T20:09:18.595Z,98502.16
2023-02-20T20:11:51.306Z,98490.63
2023-02-20T20:14:21.745Z,98533.06
2023-02-20T20:16:49.491Z,98521.22
2023-02-20T20:19:17.887Z,98534.09
2023-02-20T20:21:45.832Z,98526.72
2023-02-20T20:24:13.156Z,98526.28
2023-02-20T20:26:41.147Z,98529.25
2023-02-20T20:29:08.503Z,98516.72
2023-02-20T20:31:39.487Z,98532.59
2023-02-20T20:34:08.518Z,98472.28
2023-02-20T20:36:39.041Z,98513.91
2023-02-20T20:39:21.223Z,98533.47
2023-02-20T20:42:01.337Z,98529.75
2023-02-20T20:44:41.040Z,98520.91
2023-02-20T20:47:18.774Z,98524.59
2023-02-20T20:49:57.886Z,98500.50
2023-02-20T20:52:41.013Z,98491.31
2023-02-20T20:55:15.521Z,98512.22
2023-02-20T20:58:10.961Z,98453.50
2023-02-20T21:00:44.715Z,98524.56
2023-02-20T21:03:18.267Z,98522.91
2023-02-20T21:06:02.545Z,98530.22
2023-02-20T21:08:48.325Z,98534.94
2023-02-20T21:11:21.834Z,98539.25
2023-02-20T21:13:56.816Z,98536.28
2023-02-20T21:16:47.651Z,98547.28
2023-02-20T21:19:24.410Z,98539.13
2023-02-20T21:21:59.880Z,98519.72
2023-02-20T21:24:30.985Z,98531.81
2023-02-20T21:26:58.309Z,98520.06
2023-02-20T21:29:25.850Z,98516.41
2023-02-20T21:31:53.114Z,98524.75
2023-02-20T21:34:20.861Z,98491.63
2023-02-20T21:36:48.307Z,98502.84
2023-02-20T21:39:15.901Z,98502.34
2023-02-20T21:42:01.697Z,98537.13
2023-02-20T21:44:29.689Z,98521.56
2023-02-20T21:47:02.660Z,98518.06
2023-02-20T21:49:32.887Z,98530.09
2023-02-20T21:52:00.128Z,98523.41
2023-02-20T21:54:30.180Z,98531.09
2023-02-20T21:56:58.213Z,98527.06
2023-02-20T21:59:26.131Z,98547.78
2023-02-20T22:01:54.065Z,98526.38
2023-02-20T22:04:22.180Z,98551.50
2023-02-20T22:07:08.872Z,98541.44
2023-02-20T22:09:55.053Z,98527.22
2023-02-20T22:12:41.028Z,98536.25
2023-02-20T22:15:27.628Z,98559.19
2023-02-20T22:18:13.800Z,98537.28
2023-02-20T22:20:59.873Z,98550.97
2023-02-20T22:23:46.020Z,98529.72
2023-02-20T22:26:36.301Z,98518.34
2023-02-20T22:29:22.905Z,98511.69
2023-02-20T22:32:08.935Z,98519.38
2023-02-20T22:35:09.223Z,98527.78
2023-02-20T22:37:56.921Z,98520.22
2023-02-20T22:40:42.654Z,98516.06
2023-02-20T22:43:28.837Z,98520.41
2023-02-20T22:46:14.687Z,98531.44
2023-02-20T22:49:01.259Z,98524.94
2023-02-20T22:51:47.509Z,98542.66
2023-02-20T22:54:34.100Z,98524.78
2023-02-20T22:57:20.000Z,98543.28
2023-02-20T23:00:06.189Z,98494.69
2023-02-20T23:02:52.126Z,98512.41
2023-02-20T23:05:38.792Z,98502.84
2023-02-20T23:08:24.900Z,98512.88
2023-02-20T23:11:10.970Z,98515.72
2023-02-20T23:13:57.212Z,98504.84
2023-02-20T23:16:43.991Z,98518.06
2023-02-20T23:19:30.323Z,98537.59
2023-02-20T23:22:16.405Z,98544.50
2023-02-20T23:25:02.107Z,98523.75
2023-02-20T23:27:48.445Z,98506.53
2023-02-20T23:30:34.254Z,98519.72
2023-02-20T23:33:20.261Z,98519.06
2023-02-20T23:36:06.167Z,98529.75
2023-02-20T23:38:52.155Z,98524.19
2023-02-20T23:41:37.789Z,98538.25
2023-02-20T23:44:25.950Z,98547.66
2023-02-20T23:47:11.882Z,98532.25
2023-02-20T23:49:58.221Z,98546.66
2023-02-20T23:52:44.430Z,98536.78
2023-02-20T23:55:30.750Z,98529.06
2023-02-20T23:58:16.524Z,98536.94
